< Cyclone 198203 1982 Season Cyclone 198205 >
Cyclone 198204 (UNNAMED)
General InformationTrack Information on Google MapsList of All Images || ResourceGoogle EarthGE AnimationAtom FeedGeoJSON
Detalied Best Track (Time Zone = UTC)
Year Month Day Hour Lat. Long. Pressure (hPa) Wind (kt) Class Image Chart
1981 12 19 23 -11.6 140.3 1004 0 0 Image --
1981 12 20 02 -11.8 139.4 1001 0 0 Image --
1981 12 20 05 -11.8 138.8 998 0 0 Image --
1981 12 20 08 -11.9 138.3 994 0 0 Image --
1981 12 20 11 -11.9 137.9 990 0 0 Image --
1981 12 20 17 -12.1 136.7 995 0 0 Image --
1981 12 20 20 -12.3 135.6 1001 0 0 Image --
1981 12 20 23 -12.3 134.0 1004 0 0 Image --
1981 12 21 02 -12.2 133.1 1005 0 0 Image --
1981 12 21 05 -12.1 132.0 1005 0 0 Image --
1981 12 21 08 -12.1 131.2 1005 0 0 Image --
1981 12 21 11 -12.0 130.5 1006 0 0 Image --
1981 12 21 14 -11.8 130.1 1006 0 0 Image --
1981 12 21 17 -11.6 129.5 1005 0 0 Image --
1981 12 21 20 -11.4 128.9 1006 0 0 Image --
1981 12 21 23 -11.1 128.1 1002 0 0 Image --
1981 12 22 02 -11.1 127.2 1001 0 0 Image --
1981 12 22 05 -11.3 126.4 1000 0 0 Image --
1981 12 22 08 -11.3 125.6 1000 0 0 Image --
1981 12 22 11 -11.3 125.0 1002 0 0 Image --
< Cyclone 198203 1982 Season Cyclone 198205 >

Help